createdAt,value
2022-10-23T00:00:38.956Z,10.20
2022-10-23T00:03:05.689Z,9.60
2022-10-23T00:05:32.376Z,9.60
2022-10-23T00:07:59.711Z,9.50
2022-10-23T00:10:27.172Z,9.50
2022-10-23T00:12:54.048Z,9.40
2022-10-23T00:15:22.115Z,9.30
2022-10-23T00:17:48.764Z,9.20
2022-10-23T00:20:17.008Z,10.10
2022-10-23T00:22:43.612Z,9.00
2022-10-23T00:25:10.815Z,9.00
2022-10-23T00:27:37.600Z,9.10
2022-10-23T00:30:04.361Z,9.20
2022-10-23T00:35:02.547Z,9.40
2022-10-23T00:37:29.231Z,9.40
2022-10-23T00:39:55.869Z,9.50
2022-10-23T00:42:22.544Z,9.30
2022-10-23T00:44:49.126Z,10.40
2022-10-23T00:47:15.856Z,9.30
2022-10-23T00:49:42.924Z,9.30
2022-10-23T00:52:11.905Z,9.40
2022-10-23T00:54:40.750Z,9.50
2022-10-23T00:57:09.376Z,9.50
2022-10-23T00:59:36.036Z,9.80
2022-10-23T01:02:02.843Z,9.80
2022-10-23T01:04:29.977Z,9.90
2022-10-23T01:07:04.402Z,9.90
2022-10-23T01:09:57.246Z,9.90
2022-10-23T01:12:38.665Z,10.00
2022-10-23T01:15:08.396Z,9.90
2022-10-23T01:17:53.985Z,9.90
2022-10-23T01:20:23.574Z,9.80
2022-10-23T01:22:53.201Z,9.70
2022-10-23T01:25:27.855Z,9.60
2022-10-23T01:27:57.155Z,9.40
2022-10-23T01:30:23.841Z,9.40
2022-10-23T01:33:00.230Z,9.30
2022-10-23T01:35:33.590Z,9.30
2022-10-23T01:38:00.221Z,9.30
2022-10-23T01:40:33.175Z,9.30
2022-10-23T01:43:04.534Z,9.20
2022-10-23T01:45:41.041Z,9.00
2022-10-23T01:48:09.936Z,9.00
2022-10-23T01:50:36.969Z,9.10
2022-10-23T01:53:04.304Z,9.00
2022-10-23T01:55:32.138Z,10.40
2022-10-23T01:58:00.429Z,9.00
2022-10-23T02:00:27.078Z,9.10
2022-10-23T02:02:54.880Z,9.00
2022-10-23T02:05:24.388Z,10.60
2022-10-23T02:07:51.375Z,8.90
2022-10-23T02:10:18.304Z,9.90
2022-10-23T02:13:00.176Z,8.80
2022-10-23T02:15:29.822Z,8.80
2022-10-23T02:18:07.373Z,8.80
2022-10-23T02:20:45.639Z,8.90
2022-10-23T02:23:26.859Z,9.00
2022-10-23T02:25:55.687Z,9.00
2022-10-23T02:28:24.751Z,9.10
2022-10-23T02:30:51.423Z,9.00
2022-10-23T02:33:18.862Z,9.60
2022-10-23T02:35:46.519Z,9.30
2022-10-23T02:38:31.534Z,9.40
2022-10-23T02:41:01.084Z,9.50
2022-10-23T02:43:30.557Z,9.50
2022-10-23T02:46:06.280Z,9.30
2022-10-23T02:48:35.166Z,9.20
2022-10-23T02:51:10.985Z,9.10
2022-10-23T02:53:43.941Z,9.00
2022-10-23T02:56:10.625Z,9.00
2022-10-23T02:58:45.331Z,10.10
2022-10-23T03:01:15.067Z,9.00
2022-10-23T03:03:44.555Z,9.00
2022-10-23T03:06:11.285Z,9.10
2022-10-23T03:08:48.616Z,9.10
2022-10-23T03:11:15.288Z,9.20
2022-10-23T03:13:42.026Z,9.30
2022-10-23T03:16:08.838Z,9.20
2022-10-23T03:18:35.535Z,9.30
2022-10-23T03:21:02.294Z,9.40
2022-10-23T03:23:28.921Z,9.50
2022-10-23T03:25:56.503Z,9.50
2022-10-23T03:28:23.193Z,9.60
2022-10-23T03:30:49.824Z,9.60
2022-10-23T03:33:16.413Z,9.60
2022-10-23T03:35:43.123Z,9.70
2022-10-23T03:38:09.798Z,9.70
2022-10-23T03:40:36.525Z,9.80
2022-10-23T03:43:03.116Z,9.60
2022-10-23T03:45:30.937Z,8.00
2022-10-23T03:47:57.625Z,10.40
2022-10-23T03:50:24.482Z,9.60
2022-10-23T03:52:51.118Z,9.70
2022-10-23T03:55:17.805Z,9.60
2022-10-23T03:57:44.626Z,9.60
2022-10-23T04:00:11.635Z,9.70
2022-10-23T04:02:38.313Z,9.70
2022-10-23T04:05:05.183Z,10.80
2022-10-23T04:07:31.857Z,9.60
2022-10-23T04:09:58.429Z,10.30
2022-10-23T04:12:25.037Z,9.60
2022-10-23T04:14:51.720Z,9.70
2022-10-23T04:17:18.368Z,9.70
2022-10-23T04:19:45.045Z,9.80
2022-10-23T04:22:11.756Z,9.80
2022-10-23T04:24:38.578Z,11.10
2022-10-23T04:27:05.473Z,11.10
2022-10-23T04:29:32.554Z,9.90
2022-10-23T04:31:59.343Z,10.00
2022-10-23T04:34:25.967Z,9.90
2022-10-23T04:36:52.608Z,10.10
2022-10-23T04:39:19.249Z,10.10
2022-10-23T04:41:45.884Z,10.00
2022-10-23T04:44:12.482Z,10.90
2022-10-23T04:46:39.192Z,9.70
2022-10-23T04:49:05.837Z,9.50
2022-10-23T04:51:32.510Z,9.50
2022-10-23T04:53:59.132Z,9.40
2022-10-23T04:56:25.780Z,9.40
2022-10-23T04:58:52.755Z,9.60
2022-10-23T05:01:19.557Z,9.60
2022-10-23T05:03:46.287Z,9.80
2022-10-23T05:06:12.929Z,9.70
2022-10-23T05:08:39.662Z,10.70
2022-10-23T05:11:06.364Z,9.70
2022-10-23T05:13:32.972Z,9.60
2022-10-23T05:16:00.225Z,9.70
2022-10-23T05:18:28.570Z,9.50
2022-10-23T05:20:59.481Z,10.50
2022-10-23T05:23:26.733Z,10.80
2022-10-23T05:25:53.461Z,9.60
2022-10-23T05:28:20.085Z,10.10
2022-10-23T05:30:47.033Z,10.50
2022-10-23T05:33:13.973Z,9.70
2022-10-23T05:35:41.992Z,9.50
2022-10-23T05:38:08.868Z,10.90
2022-10-23T05:40:35.668Z,10.50
2022-10-23T05:43:02.469Z,9.30
2022-10-23T05:45:29.055Z,9.20
2022-10-23T05:48:05.657Z,9.50
2022-10-23T05:50:37.928Z,10.40
2022-10-23T05:53:04.614Z,9.20
2022-10-23T05:55:31.292Z,9.20
2022-10-23T05:57:57.915Z,9.30
2022-10-23T06:00:24.553Z,9.10
2022-10-23T06:02:51.108Z,10.30
2022-10-23T06:05:17.830Z,9.20
2022-10-23T06:07:44.642Z,9.20
2022-10-23T06:10:15.056Z,9.30
2022-10-23T06:12:41.839Z,9.30
2022-10-23T06:15:08.607Z,9.30
2022-10-23T06:17:35.282Z,9.30
2022-10-23T06:20:02.584Z,9.40
2022-10-23T06:22:29.511Z,10.10
2022-10-23T06:24:56.173Z,9.40
2022-10-23T06:27:22.825Z,9.50
2022-10-23T06:29:49.559Z,9.60
2022-10-23T06:32:16.204Z,10.80
2022-10-23T06:34:42.786Z,9.50
2022-10-23T06:37:09.469Z,9.50
2022-10-23T06:39:36.860Z,10.40
2022-10-23T06:42:03.572Z,10.40
2022-10-23T06:44:30.169Z,9.50
2022-10-23T06:46:56.853Z,11.30
2022-10-23T06:49:23.504Z,10.40
2022-10-23T06:51:50.214Z,9.60
2022-10-23T06:54:16.841Z,9.70
2022-10-23T06:56:43.485Z,9.80
2022-10-23T06:59:10.229Z,9.90
2022-10-23T07:01:37.002Z,9.90
2022-10-23T07:04:03.946Z,9.90
2022-10-23T07:06:30.575Z,9.90
2022-10-23T07:08:57.232Z,10.00
2022-10-23T07:11:24.061Z,11.90
2022-10-23T07:13:50.873Z,11.70
2022-10-23T07:16:18.468Z,10.10
2022-10-23T07:18:46.039Z,10.20
2022-10-23T07:21:12.695Z,10.40
2022-10-23T07:23:39.297Z,10.40
2022-10-23T07:26:06.037Z,11.10
2022-10-23T07:28:32.766Z,12.10
2022-10-23T07:30:59.930Z,11.10
2022-10-23T07:33:26.553Z,11.90
2022-10-23T07:35:53.251Z,11.60
2022-10-23T07:38:19.899Z,12.20
2022-10-23T07:40:46.681Z,11.10
2022-10-23T07:43:13.252Z,10.90
2022-10-23T07:45:39.882Z,11.00
2022-10-23T07:48:06.407Z,12.00
2022-10-23T07:50:33.057Z,11.40
2022-10-23T07:52:59.664Z,11.10
2022-10-23T07:55:26.491Z,12.50
2022-10-23T07:57:53.139Z,11.20
2022-10-23T08:00:19.868Z,11.30
2022-10-23T08:02:46.554Z,13.30
2022-10-23T08:05:13.176Z,11.30
2022-10-23T08:07:40.640Z,11.80
2022-10-23T08:10:07.474Z,11.40
2022-10-23T08:12:34.194Z,11.40
2022-10-23T08:15:00.812Z,11.50
2022-10-23T08:17:28.363Z,11.70
2022-10-23T08:19:55.102Z,11.70
2022-10-23T08:22:21.661Z,13.10
2022-10-23T08:24:48.341Z,12.00
2022-10-23T08:27:15.168Z,12.00
2022-10-23T08:29:41.864Z,12.00
2022-10-23T08:32:08.517Z,12.10
2022-10-23T08:34:37.985Z,12.10
2022-10-23T08:37:04.825Z,12.90
2022-10-23T08:39:31.459Z,12.20
2022-10-23T08:41:58.166Z,12.30
2022-10-23T08:44:24.784Z,14.00
2022-10-23T08:47:27.181Z,12.70
2022-10-23T08:49:59.244Z,12.30
2022-10-23T08:52:29.866Z,12.40
2022-10-23T08:55:15.375Z,12.50
2022-10-23T08:57:47.114Z,12.60
2022-10-23T09:00:15.359Z,12.70
2022-10-23T09:02:46.628Z,12.90
2022-10-23T09:05:33.760Z,13.00
2022-10-23T09:08:12.957Z,13.10
2022-10-23T09:10:51.668Z,13.20
2022-10-23T09:13:18.420Z,13.40
2022-10-23T09:15:47.713Z,13.50
2022-10-23T09:18:16.029Z,13.60
2022-10-23T09:20:44.848Z,13.70
2022-10-23T09:23:16.886Z,13.80
2022-10-23T09:25:44.127Z,13.90
2022-10-23T09:28:24.422Z,14.00
2022-10-23T09:30:52.259Z,14.10
2022-10-23T09:33:26.358Z,14.20
2022-10-23T09:35:54.702Z,14.30
2022-10-23T09:38:25.397Z,14.50
2022-10-23T09:40:52.029Z,14.60
2022-10-23T09:43:21.814Z,14.70
2022-10-23T09:45:56.362Z,14.90
2022-10-23T09:48:23.315Z,16.00
2022-10-23T09:50:57.487Z,15.20
2022-10-23T09:53:31.499Z,15.30
2022-10-23T09:56:00.491Z,15.50
2022-10-23T09:58:33.276Z,15.80
2022-10-23T10:01:00.803Z,15.80
2022-10-23T10:03:27.885Z,15.90
2022-10-23T10:05:56.941Z,16.00
2022-10-23T10:08:32.771Z,16.30
2022-10-23T10:11:25.789Z,16.20
2022-10-23T10:13:55.818Z,16.10
2022-10-23T10:16:31.702Z,16.20
2022-10-23T10:18:58.303Z,16.30
2022-10-23T10:21:26.523Z,16.50
2022-10-23T10:24:00.604Z,16.50
2022-10-23T10:26:39.824Z,16.60
2022-10-23T10:29:09.578Z,16.70
2022-10-23T10:32:11.841Z,16.80
2022-10-23T10:34:51.447Z,16.90
2022-10-23T10:37:24.680Z,17.00
2022-10-23T10:39:51.302Z,17.20
2022-10-23T10:42:29.076Z,17.20
2022-10-23T10:45:05.763Z,17.20
2022-10-23T10:47:47.619Z,17.20
2022-10-23T10:50:18.872Z,17.30
2022-10-23T10:52:49.295Z,17.30
2022-10-23T10:55:19.232Z,17.40
2022-10-23T10:57:48.565Z,17.40
2022-10-23T11:00:20.188Z,17.50
2022-10-23T11:02:53.605Z,17.50
2022-10-23T11:05:33.641Z,17.60
2022-10-23T11:08:04.202Z,17.60
2022-10-23T11:10:31.054Z,17.70
2022-10-23T11:12:57.788Z,17.70
2022-10-23T11:15:27.976Z,17.70
2022-10-23T11:17:57.837Z,17.70
2022-10-23T11:20:44.956Z,18.50
2022-10-23T11:23:27.041Z,17.90
2022-10-23T11:26:14.222Z,18.00
2022-10-23T11:28:46.205Z,18.00
2022-10-23T11:31:31.565Z,18.10
2022-10-23T11:33:58.145Z,18.10
2022-10-23T11:36:43.727Z,18.20
2022-10-23T11:39:29.576Z,18.10
2022-10-23T11:41:58.260Z,18.10
2022-10-23T11:44:42.976Z,18.20
2022-10-23T11:47:28.509Z,18.20
2022-10-23T11:50:07.443Z,18.20
2022-10-23T11:52:38.757Z,18.20
2022-10-23T11:55:21.394Z,18.30
2022-10-23T11:58:07.104Z,18.30
2022-10-23T12:00:35.045Z,18.40
2022-10-23T12:03:02.107Z,18.40
2022-10-23T12:05:41.731Z,18.50
2022-10-23T12:08:19.753Z,18.60
2022-10-23T12:10:47.504Z,18.60
2022-10-23T12:13:28.991Z,18.70
2022-10-23T12:15:58.594Z,18.70
2022-10-23T12:18:27.717Z,18.80
2022-10-23T12:20:56.685Z,18.80
2022-10-23T12:23:23.297Z,18.80
2022-10-23T12:26:11.641Z,18.90
2022-10-23T12:28:41.353Z,18.90
2022-10-23T12:31:26.502Z,18.80
2022-10-23T12:33:53.151Z,18.80
2022-10-23T12:36:31.105Z,18.90
2022-10-23T12:38:58.875Z,18.90
2022-10-23T12:41:26.659Z,18.90
2022-10-23T12:43:55.861Z,19.00
2022-10-23T12:46:33.166Z,19.10
2022-10-23T12:49:01.285Z,19.20
2022-10-23T12:51:29.021Z,19.20
2022-10-23T12:53:55.819Z,19.30
2022-10-23T12:56:22.636Z,19.30
2022-10-23T12:58:51.695Z,19.30
2022-10-23T13:01:34.509Z,19.30
2022-10-23T13:04:10.551Z,19.40
2022-10-23T13:06:38.418Z,19.40
2022-10-23T13:09:06.067Z,19.40
2022-10-23T13:11:33.204Z,19.40
2022-10-23T13:13:59.858Z,19.40
2022-10-23T13:16:26.972Z,20.10
2022-10-23T13:18:54.435Z,19.40
2022-10-23T13:21:21.120Z,19.40
2022-10-23T13:23:48.013Z,19.30
2022-10-23T13:26:24.220Z,19.20
2022-10-23T13:28:51.025Z,19.20
2022-10-23T13:31:17.645Z,19.20
2022-10-23T13:33:45.218Z,20.50
2022-10-23T13:36:14.857Z,19.10
2022-10-23T13:38:43.132Z,19.20
2022-10-23T13:41:15.070Z,19.10
2022-10-23T13:43:42.459Z,19.20
2022-10-23T13:46:14.428Z,19.10
2022-10-23T13:48:41.125Z,19.10
2022-10-23T13:51:27.580Z,19.10
2022-10-23T13:53:54.469Z,19.10
2022-10-23T13:56:22.066Z,19.10
2022-10-23T13:58:48.824Z,19.00
2022-10-23T14:01:19.978Z,19.00
2022-10-23T14:03:47.625Z,18.80
2022-10-23T14:06:14.273Z,18.80
2022-10-23T14:08:40.902Z,18.70
2022-10-23T14:11:07.557Z,18.70
2022-10-23T14:13:34.225Z,18.60
2022-10-23T14:16:00.854Z,20.50
2022-10-23T14:18:27.472Z,20.00
2022-10-23T14:20:54.110Z,19.40
2022-10-23T14:23:20.766Z,18.60
2022-10-23T14:25:47.389Z,18.70
2022-10-23T14:28:13.965Z,18.70
2022-10-23T14:30:40.587Z,18.70
2022-10-23T14:33:07.319Z,18.80
2022-10-23T14:35:33.926Z,18.80
2022-10-23T14:38:00.554Z,18.80
2022-10-23T14:40:27.225Z,18.80
2022-10-23T14:42:53.844Z,18.80
2022-10-23T14:45:20.801Z,18.80
2022-10-23T14:47:47.393Z,18.70
2022-10-23T14:50:14.356Z,18.70
2022-10-23T14:52:40.979Z,18.70
2022-10-23T14:55:07.745Z,18.60
2022-10-23T14:57:34.362Z,18.60
2022-10-23T15:00:01.034Z,18.70
2022-10-23T15:02:27.646Z,18.70
2022-10-23T15:04:54.228Z,18.80
2022-10-23T15:07:20.935Z,18.80
2022-10-23T15:09:47.558Z,18.80
2022-10-23T15:12:14.145Z,18.80
2022-10-23T15:14:40.776Z,18.80
2022-10-23T15:17:09.729Z,18.70
2022-10-23T15:19:38.410Z,18.70
2022-10-23T15:22:05.193Z,18.60
2022-10-23T15:24:31.762Z,18.60
2022-10-23T15:26:59.972Z,18.50
2022-10-23T15:29:26.574Z,18.50
2022-10-23T15:32:02.587Z,18.40
2022-10-23T15:34:29.240Z,18.40
2022-10-23T15:36:56.634Z,18.30
2022-10-23T15:39:24.473Z,18.20
2022-10-23T15:41:52.508Z,18.10
2022-10-23T15:44:20.850Z,18.00
2022-10-23T15:46:48.337Z,19.90
2022-10-23T15:49:15.244Z,18.20
2022-10-23T15:51:42.307Z,17.70
2022-10-23T15:54:10.749Z,17.60
2022-10-23T15:56:37.348Z,18.10
2022-10-23T15:59:03.969Z,18.00
2022-10-23T16:01:30.768Z,17.40
2022-10-23T16:03:57.392Z,17.40
2022-10-23T16:06:24.036Z,17.30
2022-10-23T16:08:50.819Z,17.20
2022-10-23T16:11:19.246Z,18.70
2022-10-23T16:13:45.924Z,16.80
2022-10-23T16:16:12.590Z,16.70
2022-10-23T16:18:39.614Z,18.80
2022-10-23T16:21:07.028Z,18.60
2022-10-23T16:23:34.069Z,16.50
2022-10-23T16:26:04.821Z,16.40
2022-10-23T16:28:31.722Z,16.30
2022-10-23T16:30:58.388Z,16.30
2022-10-23T16:33:25.000Z,17.30
2022-10-23T16:35:51.611Z,16.70
2022-10-23T16:38:18.245Z,16.30
2022-10-23T16:40:50.311Z,17.50
2022-10-23T16:43:16.908Z,16.30
2022-10-23T16:45:43.511Z,18.30
2022-10-23T16:48:10.103Z,16.30
2022-10-23T16:53:06.056Z,16.30
2022-10-23T16:55:32.738Z,16.50
2022-10-23T16:58:00.617Z,17.80
2022-10-23T17:00:34.742Z,16.20
2022-10-23T17:03:04.902Z,16.30
2022-10-23T17:05:35.127Z,16.20
2022-10-23T17:08:02.018Z,16.20
2022-10-23T17:10:28.686Z,16.20
2022-10-23T17:12:55.236Z,16.20
2022-10-23T17:15:23.843Z,16.20
2022-10-23T17:17:50.437Z,17.70
2022-10-23T17:20:17.070Z,17.40
2022-10-23T17:22:43.654Z,17.40
2022-10-23T17:25:10.437Z,17.10
2022-10-23T17:27:37.015Z,16.20
2022-10-23T17:30:04.007Z,16.20
2022-10-23T17:32:30.726Z,16.20
2022-10-23T17:34:57.325Z,16.20
2022-10-23T17:37:23.943Z,16.70
2022-10-23T17:39:50.575Z,16.20
2022-10-23T17:42:17.301Z,16.20
2022-10-23T17:44:43.871Z,16.80
2022-10-23T17:47:10.525Z,16.60
2022-10-23T17:49:38.108Z,16.80
2022-10-23T17:52:06.149Z,16.10
2022-10-23T17:54:32.762Z,16.00
2022-10-23T17:56:59.380Z,17.20
2022-10-23T17:59:25.932Z,16.90
2022-10-23T18:01:53.312Z,15.90
2022-10-23T18:04:20.784Z,15.90
2022-10-23T18:06:48.693Z,15.80
2022-10-23T18:09:15.814Z,15.90
2022-10-23T18:11:45.586Z,15.70
2022-10-23T18:14:15.223Z,16.60
2022-10-23T18:16:41.860Z,15.70
2022-10-23T18:19:08.906Z,15.60
2022-10-23T18:21:35.924Z,17.10
2022-10-23T18:24:03.091Z,15.70
2022-10-23T18:26:30.556Z,15.70
2022-10-23T18:28:58.514Z,17.00
2022-10-23T18:31:26.954Z,16.60
2022-10-23T18:33:57.169Z,16.00
2022-10-23T18:36:25.806Z,15.70
2022-10-23T18:38:52.815Z,15.60
2022-10-23T18:41:20.256Z,15.90
2022-10-23T18:43:46.914Z,16.30
2022-10-23T18:46:13.578Z,16.60
2022-10-23T18:48:40.425Z,15.60
2022-10-23T18:51:15.756Z,15.50
2022-10-23T18:53:43.058Z,15.50
2022-10-23T18:56:09.618Z,16.80
2022-10-23T18:58:36.193Z,16.40
2022-10-23T19:01:02.860Z,15.70
2022-10-23T19:03:29.626Z,17.20
2022-10-23T19:05:56.208Z,15.80
2022-10-23T19:08:22.889Z,16.10
2022-10-23T19:10:50.201Z,16.80
2022-10-23T19:13:17.165Z,15.90
2022-10-23T19:15:44.205Z,17.20
2022-10-23T19:18:11.106Z,15.90
2022-10-23T19:20:37.917Z,17.20
2022-10-23T19:23:05.600Z,16.80
2022-10-23T19:25:33.279Z,15.80
2022-10-23T19:28:00.291Z,17.00
2022-10-23T19:30:26.954Z,15.80
2022-10-23T19:32:53.707Z,15.70
2022-10-23T19:35:20.895Z,15.70
2022-10-23T19:37:47.585Z,15.70
2022-10-23T19:40:14.660Z,15.60
2022-10-23T19:42:42.050Z,15.60
2022-10-23T19:45:13.363Z,15.70
2022-10-23T19:47:40.133Z,15.60
2022-10-23T19:50:07.097Z,15.60
2022-10-23T19:52:34.578Z,15.70
2022-10-23T19:55:01.496Z,16.90
2022-10-23T19:57:30.368Z,15.90
2022-10-23T19:59:57.007Z,16.00
2022-10-23T20:02:23.830Z,17.00
2022-10-23T20:04:50.586Z,17.30
2022-10-23T20:07:17.294Z,16.00
2022-10-23T20:09:43.878Z,17.40
2022-10-23T20:12:10.460Z,16.00
2022-10-23T20:14:37.033Z,16.00
2022-10-23T20:17:03.598Z,18.90
2022-10-23T20:19:30.246Z,16.00
2022-10-23T20:21:56.816Z,19.00
2022-10-23T20:24:23.412Z,16.10
2022-10-23T20:26:51.873Z,19.10
2022-10-23T20:29:18.506Z,16.90
2022-10-23T20:31:45.118Z,16.20
2022-10-23T20:34:11.835Z,19.50
2022-10-23T20:36:45.460Z,16.30
2022-10-23T20:39:26.815Z,16.30
2022-10-23T20:41:55.295Z,16.80
2022-10-23T20:44:22.397Z,16.30
2022-10-23T20:46:49.259Z,16.30
2022-10-23T20:49:16.010Z,16.30
2022-10-23T20:51:43.005Z,16.60
2022-10-23T20:54:09.638Z,16.20
2022-10-23T20:56:37.475Z,16.20
2022-10-23T20:59:06.367Z,16.20
2022-10-23T21:01:33.497Z,17.20
2022-10-23T21:04:01.723Z,16.30
2022-10-23T21:06:45.418Z,17.20
2022-10-23T21:09:16.524Z,16.90
2022-10-23T21:11:43.233Z,16.20
2022-10-23T21:14:09.857Z,17.50
2022-10-23T21:16:40.590Z,16.10
2022-10-23T21:19:07.888Z,16.20
2022-10-23T21:21:34.720Z,16.20
2022-10-23T21:24:04.789Z,16.10
2022-10-23T21:26:31.426Z,16.10
2022-10-23T21:29:16.884Z,18.10
2022-10-23T21:31:44.367Z,16.60
2022-10-23T21:37:07.491Z,16.00
2022-10-23T21:39:32.797Z,16.00
2022-10-23T21:41:59.467Z,15.90
2022-10-23T21:44:26.015Z,15.90
2022-10-23T21:46:52.629Z,16.30
2022-10-23T21:49:19.213Z,15.90
2022-10-23T21:51:47.207Z,16.10
2022-10-23T21:54:16.731Z,15.80
2022-10-23T21:56:45.363Z,17.00
2022-10-23T21:59:13.533Z,15.70
2022-10-23T22:01:41.113Z,15.90
2022-10-23T22:04:08.007Z,15.70
2022-10-23T22:06:34.655Z,15.70
2022-10-23T22:09:01.320Z,15.90
2022-10-23T22:11:28.481Z,17.00
2022-10-23T22:13:55.442Z,15.70
2022-10-23T22:16:22.262Z,16.00
2022-10-23T22:18:48.915Z,16.10
2022-10-23T22:21:16.932Z,15.60
2022-10-23T22:23:43.820Z,15.50
2022-10-23T22:26:19.143Z,17.00
2022-10-23T22:28:45.748Z,16.80
2022-10-23T22:31:16.222Z,16.60
2022-10-23T22:33:43.007Z,15.60
2022-10-23T22:36:09.613Z,16.20
2022-10-23T22:38:36.301Z,15.60
2022-10-23T22:41:03.364Z,15.60
2022-10-23T22:43:29.960Z,15.50
2022-10-23T22:46:04.348Z,16.60
2022-10-23T22:48:31.009Z,15.50
2022-10-23T22:50:57.743Z,12.70
2022-10-23T22:53:24.463Z,15.40
2022-10-23T22:55:51.102Z,15.30
2022-10-23T22:58:17.772Z,15.60
2022-10-23T23:00:44.674Z,17.10
2022-10-23T23:03:11.298Z,15.20
2022-10-23T23:08:13.882Z,15.20
2022-10-23T23:10:40.530Z,15.70
2022-10-23T23:13:07.148Z,15.10
2022-10-23T23:15:38.304Z,15.80
2022-10-23T23:18:04.989Z,16.30
2022-10-23T23:20:31.565Z,15.10
2022-10-23T23:22:58.177Z,15.20
2022-10-23T23:25:24.778Z,16.10
2022-10-23T23:27:51.362Z,16.60
2022-10-23T23:30:17.984Z,16.70
2022-10-23T23:32:47.524Z,15.00
2022-10-23T23:35:14.436Z,15.80
2022-10-23T23:37:41.119Z,14.80
2022-10-23T23:40:07.972Z,14.80
2022-10-23T23:42:34.763Z,14.70
2022-10-23T23:45:13.617Z,15.20
2022-10-23T23:47:41.235Z,15.20
2022-10-23T23:50:08.920Z,17.40
2022-10-23T23:52:35.640Z,14.50
2022-10-23T23:55:02.220Z,14.50
2022-10-23T23:57:28.897Z,14.50
2022-10-23T23:59:55.548Z,17.00
